Time;durP1;ratioP1;P1;durP2;ratioP2;P2;SDS_P1;SDS_P2;PMS_P1;PMS_P2;Temp;Humidity;BMP_temperature;BMP_pressure;BME280_temperature;BME280_humidity;BME280_pressure;Samples;Min_cycle;Max_cycle;Signal;HPM_P1;HPM_P2
2021/07/31 00:01:13;;;;;;;9.48;5.85;;;;;;;24.63;87.50;100781.57;1792333;80;20904;-76
2021/07/31 00:03:40;;;;;;;7.78;4.97;;;;;;;24.62;87.41;100786.58;1781538;80;20935;-77
2021/07/31 00:06:07;;;;;;;7.28;4.95;;;;;;;24.60;87.31;100785.94;1792422;80;20998;-76
2021/07/31 00:08:34;;;;;;;6.70;4.78;;;;;;;24.61;87.31;100784.93;1781553;80;20916;-76
2021/07/31 00:11:02;;;;;;;7.28;5.45;;;;;;;24.62;87.22;100786.58;1792203;80;20864;-75
2021/07/31 00:13:30;;;;;;;11.05;5.30;;;;;;;24.64;87.13;100783.22;1781370;80;20928;-76
2021/07/31 00:15:56;;;;;;;11.40;5.75;;;;;;;24.64;87.03;100776.59;1792131;80;21522;-76
2021/07/31 00:18:23;;;;;;;11.15;5.45;;;;;;;24.63;87.10;100778.92;1781303;80;20990;-76
2021/07/31 00:20:51;;;;;;;7.95;5.40;;;;;;;24.62;87.17;100775.97;1792105;80;20915;-76
2021/07/31 00:23:18;;;;;;;10.60;5.15;;;;;;;24.62;87.34;100779.13;1781610;80;21150;-76
2021/07/31 00:25:44;;;;;;;7.65;5.42;;;;;;;24.62;87.42;100774.64;1792141;80;20916;-76
2021/07/31 00:28:11;;;;;;;9.48;4.87;;;;;;;24.61;87.48;100769.51;1781295;80;20924;-76
2021/07/31 00:30:38;;;;;;;10.72;5.33;;;;;;;24.62;87.52;100775.97;1792352;80;21501;-76
2021/07/31 00:33:07;;;;;;;6.08;5.40;;;;;;;24.61;87.50;100778.30;1781322;80;37259;-76
2021/07/31 00:35:34;;;;;;;6.05;4.92;;;;;;;24.58;87.53;100770.72;1792225;80;21512;-76
2021/07/31 00:38:01;;;;;;;5.12;4.62;;;;;;;24.56;87.55;100770.09;1781350;80;20919;-76
2021/07/31 00:40:28;;;;;;;7.85;4.72;;;;;;;24.57;87.56;100771.72;1806932;79;20971;-76
2021/07/31 00:42:57;;;;;;;8.13;4.58;;;;;;;24.55;87.51;100771.09;1812349;78;21047;-76
2021/07/31 00:45:23;;;;;;;8.18;4.50;;;;;;;24.55;87.45;100766.29;1784194;79;21061;-76
2021/07/31 00:47:50;;;;;;;7.47;4.47;;;;;;;24.55;87.34;100759.66;1793741;79;21109;-76
2021/07/31 00:50:17;;;;;;;5.95;4.83;;;;;;;24.56;87.23;100762.13;1814205;79;21005;-76
2021/07/31 00:52:44;;;;;;;7.47;5.28;;;;;;;24.56;87.05;100767.44;1793281;79;21003;-76
2021/07/31 00:55:13;;;;;;;10.08;4.90;;;;;;;24.55;87.08;100765.78;1785214;79;20919;-76
2021/07/31 00:57:41;;;;;;;7.60;4.58;;;;;;;24.56;87.00;100763.46;1822315;78;20958;-76
2021/07/31 01:00:15;;;;;;;11.03;5.42;;;;;;;24.57;87.14;100755.80;1793106;79;21906;-75
2021/07/31 01:02:42;;;;;;;6.92;4.65;;;;;;;24.57;87.13;100751.81;1814455;79;21037;-76
2021/07/31 01:05:10;;;;;;;6.85;4.80;;;;;;;24.58;86.98;100752.64;1794579;79;20911;-75
2021/07/31 01:07:37;;;;;;;9.50;5.00;;;;;;;24.59;86.93;100757.77;1759369;79;21485;-75
2021/07/31 01:10:06;;;;;;;12.15;4.85;;;;;;;24.60;86.58;100751.97;1822838;78;20934;-75
2021/07/31 01:12:35;;;;;;;11.48;5.20;;;;;;;24.58;86.27;100749.48;1792646;79;20876;-76
2021/07/31 01:15:04;;;;;;;6.60;4.85;;;;;;;24.56;86.12;100747.54;1811484;78;20915;-76
2021/07/31 01:17:31;;;;;;;12.73;5.22;;;;;;;24.56;86.00;100752.02;1814386;79;20918;-76
2021/07/31 01:19:58;;;;;;;8.63;4.92;;;;;;;24.53;86.18;100750.58;1794190;79;20967;-76
2021/07/31 01:22:27;;;;;;;9.03;5.70;;;;;;;24.52;86.13;100744.94;1813774;79;21513;-75
2021/07/31 01:25:02;;;;;;;6.42;4.92;;;;;;;24.50;86.30;100748.80;1793192;79;21555;-76
2021/07/31 01:27:29;;;;;;;11.18;6.70;;;;;;;24.47;86.55;100750.51;1784197;80;21508;-76
2021/07/31 01:29:57;;;;;;;12.43;6.10;;;;;;;24.44;86.71;100747.70;1823370;78;21018;-76
2021/07/31 01:32:24;;;;;;;9.78;5.85;;;;;;;24.44;86.99;100746.91;1794230;79;20923;-75
2021/07/31 01:34:50;;;;;;;10.20;6.78;;;;;;;24.38;87.07;100748.45;1813763;79;20935;-75
2021/07/31 01:37:17;;;;;;;10.08;6.30;;;;;;;24.36;87.26;100741.70;1822807;78;22152;-75
2021/07/31 01:39:47;;;;;;;11.48;6.45;;;;;;;24.31;87.42;100743.62;1799553;79;21525;-75
2021/07/31 01:42:14;;;;;;;10.38;6.10;;;;;;;24.30;87.74;100747.27;1787665;80;21442;-75
2021/07/31 01:44:41;;;;;;;9.23;6.22;;;;;;;24.28;87.85;100751.12;1770751;80;20948;-75
2021/07/31 01:47:08;;;;;;;13.35;7.28;;;;;;;24.25;88.06;100744.34;1781826;80;20927;-75
2021/07/31 01:49:35;;;;;;;10.85;7.17;;;;;;;24.24;88.32;100745.37;1792432;80;22013;-76
2021/07/31 01:52:06;;;;;;;13.77;7.67;;;;;;;24.21;88.60;100751.05;1792193;79;21046;-75
2021/07/31 01:54:34;;;;;;;12.18;7.35;;;;;;;24.18;88.78;100752.75;1781655;80;20919;-75
2021/07/31 01:57:03;;;;;;;12.78;7.50;;;;;;;24.17;88.82;100755.08;1792093;80;20990;-76
2021/07/31 01:59:38;;;;;;;14.20;7.03;;;;;;;24.14;88.91;100760.25;1787592;79;20967;-76
2021/07/31 02:02:05;;;;;;;9.43;6.95;;;;;;;24.12;88.94;100764.91;1781429;80;21491;-76
2021/07/31 02:04:34;;;;;;;11.03;7.25;;;;;;;24.10;89.05;100766.90;1792228;80;20990;-76
2021/07/31 02:07:19;;;;;;;10.25;6.80;;;;;;;24.10;89.38;100764.75;1781499;80;21025;-75
2021/07/31 02:09:45;;;;;;;9.48;6.35;;;;;;;24.10;89.60;100764.25;1792574;80;21556;-76
2021/07/31 02:12:13;;;;;;;9.10;5.97;;;;;;;24.11;89.64;100765.93;1781466;80;20915;-75
2021/07/31 02:14:42;;;;;;;10.00;5.22;;;;;;;24.13;89.55;100765.23;1792157;80;21518;-76
2021/07/31 02:17:15;;;;;;;8.35;5.25;;;;;;;24.16;89.43;100764.03;1781417;80;21399;-76
2021/07/31 02:19:43;;;;;;;9.48;5.25;;;;;;;24.18;89.38;100758.87;1792369;79;20883;-77
2021/07/31 02:22:11;;;;;;;7.37;5.30;;;;;;;24.20;89.41;100760.00;1781089;79;20987;-77
2021/07/31 02:24:56;;;;;;;9.63;5.33;;;;;;;24.22;89.44;100756.15;1792149;80;21572;-74
2021/07/31 02:27:31;;;;;;;8.75;6.00;;;;;;;24.26;89.74;100756.59;1779575;80;21201;-76
2021/07/31 02:30:03;;;;;;;12.18;5.05;;;;;;;24.28;90.74;100750.62;1792235;79;20916;-77
2021/07/31 02:32:32;;;;;;;9.73;5.28;;;;;;;24.32;91.56;100753.19;1768572;80;21418;-76
2021/07/31 02:34:58;;;;;;;11.35;5.50;;;;;;;24.36;92.33;100753.64;1792290;80;20935;-76
2021/07/31 02:37:25;;;;;;;9.33;4.92;;;;;;;24.40;93.07;100748.28;1781426;80;21592;-76
2021/07/31 02:39:53;;;;;;;8.95;4.97;;;;;;;24.44;93.84;100748.23;1795101;79;21917;-76
2021/07/31 02:42:21;;;;;;;6.25;4.62;;;;;;;24.49;94.61;100747.15;1806286;79;20991;-76
2021/07/31 02:44:48;;;;;;;10.80;5.33;;;;;;;24.52;95.44;100753.41;1806361;79;20888;-76
2021/07/31 02:47:17;;;;;;;12.03;5.62;;;;;;;24.54;96.10;100756.17;1806004;79;20916;-76
2021/07/31 02:49:45;;;;;;;9.70;5.65;;;;;;;24.59;96.84;100759.10;1797926;79;21293;-76
2021/07/31 02:52:12;;;;;;;11.50;6.05;;;;;;;24.61;97.33;100759.72;1810773;79;21134;-76
2021/07/31 02:54:44;;;;;;;10.13;5.55;;;;;;;24.65;97.75;100758.34;1789927;79;21006;-76
2021/07/31 02:57:12;;;;;;;8.28;5.40;;;;;;;24.69;98.20;100765.42;1814470;78;20888;-78
2021/07/31 02:59:39;;;;;;;10.48;5.60;;;;;;;24.72;98.62;100767.19;1790152;79;20963;-77
2021/07/31 03:02:07;;;;;;;13.88;6.03;;;;;;;24.74;99.19;100765.66;1814302;79;21505;-77
2021/07/31 03:04:38;;;;;;;12.78;5.87;;;;;;;24.76;99.33;100773.73;1789920;79;21987;-76
2021/07/31 03:07:09;;;;;;;12.60;5.55;;;;;;;24.79;99.58;100771.73;1813067;78;21529;-77
2021/07/31 03:09:38;;;;;;;12.45;6.05;;;;;;;24.81;99.86;100769.70;1784365;80;21568;-76
2021/07/31 03:12:07;;;;;;;9.10;5.50;;;;;;;24.81;100.00;100771.85;1814473;78;22165;-77
2021/07/31 03:14:35;;;;;;;10.93;6.05;;;;;;;24.82;100.00;100778.84;1790097;79;20916;-77
2021/07/31 03:17:04;;;;;;;7.22;5.33;;;;;;;24.85;100.00;100787.75;1814361;78;21478;-77
2021/07/31 03:19:32;;;;;;;7.87;5.33;;;;;;;24.87;100.00;100784.39;1773393;80;20878;-76
2021/07/31 03:21:59;;;;;;;8.93;5.45;;;;;;;24.88;100.00;100790.02;1814441;79;20993;-76
2021/07/31 03:24:28;;;;;;;10.75;5.87;;;;;;;24.86;100.00;100794.69;1798523;79;20923;-76
2021/07/31 03:26:57;;;;;;;11.88;5.97;;;;;;;24.88;100.00;100794.01;1814353;78;20914;-77
2021/07/31 03:29:26;;;;;;;6.67;5.58;;;;;;;24.91;100.00;100790.97;1792068;79;21156;-77
2021/07/31 03:31:52;;;;;;;10.40;5.60;;;;;;;24.96;100.00;100795.69;1765129;81;20920;-76
2021/07/31 03:34:21;;;;;;;10.38;5.37;;;;;;;25.00;100.00;100799.11;1777825;79;21514;-77
2021/07/31 03:36:53;;;;;;;10.72;5.67;;;;;;;25.03;100.00;100793.92;1771161;81;21503;-77
2021/07/31 03:39:25;;;;;;;9.13;5.17;;;;;;;25.06;100.00;100801.00;1794696;78;20935;-77
2021/07/31 03:41:54;;;;;;;10.25;5.58;;;;;;;25.09;100.00;100791.31;1810634;79;21055;-76
2021/07/31 03:44:21;;;;;;;11.78;5.78;;;;;;;25.11;100.00;100786.63;1775124;80;20895;-76
2021/07/31 03:46:49;;;;;;;9.13;5.20;;;;;;;25.14;100.00;100790.75;1770580;81;21577;-76
2021/07/31 03:49:18;;;;;;;10.65;5.05;;;;;;;25.14;100.00;100790.22;1810764;79;20956;-76
2021/07/31 03:51:47;;;;;;;9.80;5.47;;;;;;;25.15;100.00;100791.88;1775326;80;20939;-74
2021/07/31 03:54:14;;;;;;;8.63;5.80;;;;;;;25.17;100.00;100798.34;1763666;80;21675;-76
2021/07/31 03:56:43;;;;;;;12.58;5.72;;;;;;;25.17;100.00;100791.19;1811204;79;20954;-76
2021/07/31 03:59:12;;;;;;;8.80;5.70;;;;;;;25.18;100.00;100798.12;1775192;80;20900;-76
2021/07/31 04:01:40;;;;;;;6.33;5.42;;;;;;;25.18;100.00;100798.12;1771041;80;20936;-76
2021/07/31 04:04:08;;;;;;;6.67;5.15;;;;;;;25.20;100.00;100804.59;1769986;81;21065;-77
2021/07/31 04:06:36;;;;;;;8.03;4.87;;;;;;;25.21;100.00;100808.36;1809226;79;21153;-77
2021/07/31 04:09:15;;;;;;;14.83;6.65;;;;;;;25.23;100.00;100809.02;1772312;80;20964;-75
2021/07/31 04:12:00;;;;;;;32.55;16.70;;;;;;;25.24;100.00;100808.48;1817096;79;20954;-75
2021/07/31 04:14:30;;;;;;;70.35;41.13;;;;;;;25.21;100.00;100811.02;1778444;80;21006;-75
2021/07/31 04:17:00;;;;;;;83.25;54.73;;;;;;;25.19;99.61;100812.23;1770744;80;21018;-75
2021/07/31 04:19:27;;;;;;;94.87;72.75;;;;;;;25.14;98.69;100812.80;1811374;78;21167;-75
2021/07/31 04:21:56;;;;;;;95.62;83.85;;;;;;;25.09;98.15;100811.23;1771387;80;20971;-76
2021/07/31 04:24:24;;;;;;;114.67;98.70;;;;;;;25.06;97.84;100814.27;1749729;82;20959;-76
2021/07/31 04:26:51;;;;;;;111.57;99.37;;;;;;;25.03;97.85;100809.85;1751328;82;20943;-77
2021/07/31 04:29:17;;;;;;;112.92;91.50;;;;;;;25.03;97.98;100812.50;1799853;77;20892;-76
2021/07/31 04:31:45;;;;;;;104.23;88.95;;;;;;;25.04;98.12;100811.00;1818230;77;21114;-76
2021/07/31 04:34:11;;;;;;;94.97;80.77;;;;;;;25.06;98.26;100811.62;1776749;77;20932;-77
2021/07/31 04:36:38;;;;;;;86.05;71.22;;;;;;;25.10;98.41;100810.73;1774621;80;20983;-76
2021/07/31 04:39:05;;;;;;;66.55;48.40;;;;;;;25.12;98.53;100817.49;1773983;80;20936;-76
2021/07/31 04:41:32;;;;;;;45.83;34.90;;;;;;;25.16;98.56;100813.95;1810099;78;21513;-76
2021/07/31 04:43:59;;;;;;;39.88;23.05;;;;;;;25.19;98.43;100821.03;1764281;80;21145;-76
2021/07/31 04:46:26;;;;;;;23.42;17.55;;;;;;;25.22;98.33;100815.33;1769844;80;21006;-75
2021/07/31 04:48:53;;;;;;;25.48;13.35;;;;;;;25.27;98.25;100819.55;1771025;81;20971;-74
2021/07/31 04:51:20;;;;;;;19.32;10.95;;;;;;;25.31;98.23;100819.16;1810981;79;21035;-75
2021/07/31 04:53:47;;;;;;;21.85;15.18;;;;;;;25.33;98.34;100819.80;1810756;79;21039;-75
2021/07/31 04:56:14;;;;;;;25.30;14.10;;;;;;;25.33;98.46;100824.62;1775557;80;21171;-75
2021/07/31 04:58:40;;;;;;;19.98;13.03;;;;;;;25.34;98.51;100820.92;1788345;79;21530;-75
2021/07/31 05:01:07;;;;;;;19.67;13.93;;;;;;;25.39;98.56;100828.33;1775569;80;20900;-75
2021/07/31 05:03:34;;;;;;;21.70;13.28;;;;;;;25.43;98.56;100826.94;1811259;79;20948;-75
2021/07/31 05:06:05;;;;;;;26.05;14.35;;;;;;;25.47;98.71;100825.01;1809837;79;20950;-75
2021/07/31 05:08:31;;;;;;;23.73;14.93;;;;;;;25.53;98.77;100829.58;1775717;80;21819;-76
2021/07/31 05:11:03;;;;;;;21.02;14.00;;;;;;;25.59;98.59;100835.44;1811205;79;20991;-76
2021/07/31 05:13:31;;;;;;;27.67;12.90;;;;;;;25.64;98.49;100834.38;1764816;80;20940;-76
2021/07/31 05:15:58;;;;;;;24.85;13.88;;;;;;;25.71;98.35;100834.41;1811033;79;20935;-76
2021/07/31 05:18:25;;;;;;;15.20;12.35;;;;;;;25.75;97.87;100836.47;1810666;79;20978;-77
2021/07/31 05:20:53;;;;;;;27.37;13.15;;;;;;;25.78;97.53;100833.41;1810275;79;21411;-76
2021/07/31 05:23:20;;;;;;;18.40;11.57;;;;;;;25.84;97.18;100837.66;1811073;79;20966;-75
2021/07/31 05:25:46;;;;;;;19.92;11.68;;;;;;;25.89;96.88;100831.23;1810616;79;21026;-76
2021/07/31 05:28:13;;;;;;;25.70;11.90;;;;;;;25.96;96.58;100834.75;1776014;80;20967;-75
2021/07/31 05:30:43;;;;;;;14.95;8.28;;;;;;;26.03;96.31;100832.45;1810018;79;20974;-76
2021/07/31 05:33:10;;;;;;;16.87;8.63;;;;;;;26.09;94.47;100828.17;1810728;79;21130;-76
2021/07/31 05:35:36;;;;;;;23.60;8.15;;;;;;;26.17;92.34;100826.18;1811210;79;20963;-75
2021/07/31 05:38:03;;;;;;;14.83;7.75;;;;;;;26.24;91.49;100833.69;1810376;78;20888;-76
2021/07/31 05:40:30;;;;;;;9.40;6.05;;;;;;;26.32;87.66;100834.54;1775800;80;21617;-75
2021/07/31 05:42:57;;;;;;;9.88;5.90;;;;;;;26.37;85.88;100838.23;1797308;79;21059;-75
2021/07/31 05:45:26;;;;;;;11.00;6.12;;;;;;;26.43;85.24;100832.61;1814145;79;21010;-76
2021/07/31 05:47:56;;;;;;;10.35;5.87;;;;;;;26.49;84.86;100831.30;1811446;78;20994;-76
2021/07/31 05:50:23;;;;;;;12.90;5.03;;;;;;;26.55;83.98;100828.38;1778854;79;20868;-76
2021/07/31 05:52:50;;;;;;;9.08;4.90;;;;;;;26.62;82.71;100833.18;1787673;79;20976;-76
2021/07/31 05:55:17;;;;;;;11.15;5.50;;;;;;;26.67;81.13;100834.75;1793039;79;20963;-75
2021/07/31 05:57:44;;;;;;;9.50;5.00;;;;;;;26.74;78.35;100835.55;1805540;79;21870;-75
2021/07/31 06:00:13;;;;;;;10.75;5.58;;;;;;;26.79;77.39;100834.45;1787196;79;20928;-76
2021/07/31 06:02:39;;;;;;;6.25;4.90;;;;;;;26.83;75.29;100839.19;1788397;79;20959;-73
2021/07/31 06:05:08;;;;;;;7.22;4.83;;;;;;;26.89;74.19;100836.76;1797525;79;20940;-75
2021/07/31 06:07:36;;;;;;;12.80;5.37;;;;;;;26.93;72.40;100844.12;1814447;78;20946;-74
2021/07/31 06:10:05;;;;;;;7.72;4.60;;;;;;;26.97;71.67;100840.54;1823206;78;22003;-78
2021/07/31 06:12:32;;;;;;;7.10;4.72;;;;;;;27.01;69.71;100841.28;1782704;80;20896;-76
2021/07/31 06:14:59;;;;;;;8.25;4.97;;;;;;;27.05;70.65;100839.85;1796801;79;20979;-75
2021/07/31 06:17:27;;;;;;;6.95;5.08;;;;;;;27.13;70.58;100842.30;1814196;78;20967;-74
2021/07/31 06:19:53;;;;;;;10.82;4.83;;;;;;;27.21;70.80;100843.45;1823041;78;21066;-76
2021/07/31 06:22:21;;;;;;;6.12;5.03;;;;;;;27.26;70.84;100842.81;1793673;79;21145;-74
2021/07/31 06:24:47;;;;;;;8.83;5.58;;;;;;;27.33;70.98;100847.63;1808519;78;20888;-76
2021/07/31 06:27:14;;;;;;;7.95;5.47;;;;;;;27.39;70.44;100851.31;1769404;80;21574;-77
2021/07/31 06:29:41;;;;;;;8.78;5.12;;;;;;;27.41;69.89;100843.41;1773221;80;20991;-75
2021/07/31 06:32:09;;;;;;;6.90;4.97;;;;;;;27.45;69.78;100845.19;1796644;79;20967;-77
2021/07/31 06:34:36;;;;;;;8.35;5.40;;;;;;;27.51;68.04;100844.36;1810915;78;21323;-75
2021/07/31 06:37:04;;;;;;;7.50;4.58;;;;;;;27.57;67.74;100840.89;1768582;80;20841;-78
2021/07/31 06:39:31;;;;;;;8.88;5.70;;;;;;;27.63;68.78;100840.06;1793820;79;21098;-74
2021/07/31 06:41:57;;;;;;;6.90;4.85;;;;;;;27.68;68.97;100841.06;1809317;78;20987;-74
2021/07/31 06:44:24;;;;;;;9.53;5.62;;;;;;;27.74;69.49;100837.56;1786043;79;20975;-73
2021/07/31 06:46:53;;;;;;;11.28;5.62;;;;;;;27.78;69.58;100835.30;1784266;79;20837;-72
2021/07/31 06:49:21;;;;;;;7.70;5.87;;;;;;;27.83;69.44;100835.48;1795848;79;20947;-75
2021/07/31 06:51:48;;;;;;;9.08;6.08;;;;;;;27.88;68.88;100840.20;1793862;79;21663;-74
2021/07/31 06:54:14;;;;;;;8.15;5.85;;;;;;;27.91;69.22;100837.94;1811855;79;20964;-75
2021/07/31 06:56:42;;;;;;;10.98;6.60;;;;;;;27.97;69.26;100834.42;1784402;79;20935;-74
2021/07/31 06:59:08;;;;;;;11.97;6.42;;;;;;;28.04;69.60;100835.23;1795949;79;21942;-74
2021/07/31 07:01:35;;;;;;;10.68;6.37;;;;;;;28.08;69.38;100831.12;1809106;78;20911;-77
2021/07/31 07:04:03;;;;;;;9.18;6.08;;;;;;;28.12;68.97;100827.52;1779605;80;20884;-78
2021/07/31 07:06:30;;;;;;;7.42;6.10;;;;;;;28.14;68.96;100833.48;1815772;78;20982;-83
2021/07/31 07:08:58;;;;;;;9.40;6.53;;;;;;;28.20;68.33;100840.13;1773478;80;20986;-74
2021/07/31 07:11:24;;;;;;;8.53;6.28;;;;;;;28.23;67.93;100837.55;1791124;79;21209;-75
2021/07/31 07:13:51;;;;;;;11.45;6.42;;;;;;;28.24;67.69;100833.31;1814511;78;20915;-74
2021/07/31 07:16:18;;;;;;;11.50;5.95;;;;;;;28.27;68.36;100833.42;1823171;78;20993;-74
2021/07/31 07:18:44;;;;;;;8.18;5.40;;;;;;;28.33;69.17;100830.73;1794382;79;20889;-73
2021/07/31 07:21:11;;;;;;;9.23;5.97;;;;;;;28.44;68.40;100840.41;1811513;79;20966;-74
2021/07/31 07:23:38;;;;;;;10.00;6.40;;;;;;;28.55;67.96;100831.73;1808753;78;22058;-77
2021/07/31 07:26:10;;;;;;;9.80;5.70;;;;;;;28.63;66.06;100834.14;1780821;79;20983;-74
2021/07/31 07:28:38;;;;;;;6.83;5.22;;;;;;;28.64;65.27;100827.77;1777830;78;21066;-73
2021/07/31 07:31:05;;;;;;;8.15;5.22;;;;;;;28.66;66.18;100830.56;1790383;79;20911;-76
2021/07/31 07:33:32;;;;;;;8.03;5.33;;;;;;;28.72;66.23;100826.20;1772125;81;20869;-74
2021/07/31 07:35:58;;;;;;;4.92;4.53;;;;;;;28.77;65.51;100824.55;1794665;79;21972;-74
2021/07/31 07:38:26;;;;;;;5.87;4.92;;;;;;;28.83;64.32;100826.34;1782291;79;20920;-74
2021/07/31 07:40:53;;;;;;;7.60;5.37;;;;;;;28.89;64.22;100830.00;1799747;79;20923;-73
2021/07/31 07:43:19;;;;;;;8.83;5.22;;;;;;;29.00;60.84;100832.50;1789789;79;20971;-74
2021/07/31 07:45:48;;;;;;;8.18;5.20;;;;;;;29.04;60.08;100820.34;1789785;79;21491;-76
2021/07/31 07:48:15;;;;;;;10.13;5.00;;;;;;;29.09;60.83;100826.67;1789022;79;21157;-73
2021/07/31 07:50:42;;;;;;;8.68;5.03;;;;;;;29.17;60.73;100825.55;1811056;78;20915;-76
2021/07/31 07:53:08;;;;;;;6.47;5.00;;;;;;;29.23;59.23;100816.14;1768640;80;20983;-74
2021/07/31 07:55:36;;;;;;;8.28;5.12;;;;;;;29.31;59.02;100821.27;1768825;80;20932;-74
2021/07/31 07:58:07;;;;;;;11.60;5.25;;;;;;;29.42;59.35;100826.38;1787614;79;20955;-74
2021/07/31 08:00:34;;;;;;;;;;;;;;;29.53;58.95;100817.66;1789816;79;21158;-71
2021/07/31 08:03:01;;;;;;;10.23;5.00;;;;;;;29.62;56.49;100819.00;1814503;79;20115;-73
2021/07/31 08:05:28;;;;;;;9.68;4.92;;;;;;;29.67;56.82;100811.66;1823454;78;21497;-76
2021/07/31 08:07:55;;;;;;;5.15;4.65;;;;;;;29.76;56.33;100817.00;1793463;79;20970;-73
2021/07/31 08:10:22;;;;;;;5.12;4.12;;;;;;;29.79;54.38;100813.88;1809958;78;21014;-74
2021/07/31 08:12:48;;;;;;;5.58;4.33;;;;;;;29.88;52.58;100809.89;1779369;79;21144;-81
2021/07/31 08:15:15;;;;;;;7.78;4.85;;;;;;;29.94;50.39;100808.99;1809999;78;20927;-77
2021/07/31 08:17:42;;;;;;;8.48;4.40;;;;;;;29.96;50.75;100810.13;1768869;81;21043;-73
2021/07/31 08:20:11;;;;;;;9.38;4.30;;;;;;;29.99;50.33;100802.98;1768587;81;20963;-82
2021/07/31 08:22:40;;;;;;;6.37;4.33;;;;;;;30.05;50.74;100802.08;1773745;80;20951;-77
2021/07/31 08:25:08;;;;;;;7.22;4.83;;;;;;;30.12;49.65;100809.52;1817956;79;21647;-75
2021/07/31 08:27:35;;;;;;;5.03;4.37;;;;;;;30.19;49.54;100811.05;1784366;80;20911;-78
2021/07/31 08:30:04;;;;;;;7.28;3.72;;;;;;;30.25;48.54;100799.98;1818024;78;20942;-76
2021/07/31 08:32:31;;;;;;;9.38;4.95;;;;;;;30.26;49.01;100799.73;1784262;80;21525;-73
2021/07/31 08:35:00;;;;;;;8.88;4.50;;;;;;;30.30;48.71;100804.94;1809965;78;20978;-77
2021/07/31 08:37:27;;;;;;;4.97;4.17;;;;;;;30.35;47.04;100804.23;1768577;81;21131;-74
2021/07/31 08:39:55;;;;;;;5.83;4.17;;;;;;;30.38;47.43;100803.78;1790717;79;20943;-74
2021/07/31 08:42:22;;;;;;;5.60;4.47;;;;;;;30.44;47.76;100804.27;1816953;78;20986;-76
2021/07/31 08:44:52;;;;;;;11.10;4.25;;;;;;;30.53;47.70;100812.28;1779043;80;21570;-76
2021/07/31 08:47:19;;;;;;;6.35;4.25;;;;;;;30.62;47.48;100806.06;1783523;80;20967;-72
2021/07/31 08:49:47;;;;;;;8.13;4.15;;;;;;;30.68;47.56;100805.97;1783261;80;21497;-74
2021/07/31 08:52:15;;;;;;;4.87;4.28;;;;;;;30.79;47.75;100808.39;1761578;80;20964;-81
2021/07/31 08:54:42;;;;;;;8.30;4.58;;;;;;;30.88;47.46;100809.69;1783272;80;20919;-80
2021/07/31 08:57:11;;;;;;;7.85;4.60;;;;;;;30.91;47.01;100811.38;1783151;80;21528;-81
2021/07/31 08:59:39;;;;;;;8.33;4.50;;;;;;;30.93;45.81;100810.62;1783428;80;20975;-76
2021/07/31 09:02:08;;;;;;;9.03;4.12;;;;;;;30.89;45.98;100807.27;1761507;80;21557;-79
2021/07/31 09:04:34;;;;;;;6.78;4.10;;;;;;;30.82;46.62;100806.59;1782903;80;20988;-79
2021/07/31 09:07:15;;;;;;;9.25;4.30;;;;;;;30.88;47.13;100807.83;1787385;80;20923;-86
2021/07/31 09:09:41;;;;;;;5.00;3.75;;;;;;;30.98;46.59;100804.61;1783195;80;21063;-76
2021/07/31 09:12:10;;;;;;;4.20;3.77;;;;;;;31.07;46.91;100813.12;1783661;80;21027;-79
2021/07/31 09:14:46;;;;;;;6.45;4.50;;;;;;;31.13;45.86;100803.63;1783383;80;21495;-75
2021/07/31 09:17:25;;;;;;;5.60;3.92;;;;;;;31.11;45.54;100810.27;1783391;80;21059;-80
2021/07/31 09:19:55;;;;;;;7.00;4.20;;;;;;;31.07;43.06;100800.53;1783158;80;20892;-79
2021/07/31 09:22:21;;;;;;;7.85;4.30;;;;;;;31.03;44.50;100804.72;1783194;80;20935;-78
2021/07/31 09:25:10;;;;;;;6.83;3.90;;;;;;;31.11;44.35;100805.70;1783108;80;20988;-79
2021/07/31 09:27:37;;;;;;;5.00;3.83;;;;;;;31.22;44.55;100800.88;1783271;80;21981;-77
2021/07/31 09:30:05;;;;;;;4.42;4.03;;;;;;;31.34;44.14;100804.89;1783220;80;20876;-74
2021/07/31 09:32:42;;;;;;;5.05;4.15;;;;;;;31.42;43.16;100795.99;1787684;79;20943;-79
2021/07/31 09:35:22;;;;;;;4.87;4.28;;;;;;;31.48;43.43;100782.98;1783254;80;20940;-83
2021/07/31 09:37:53;;;;;;;6.62;4.40;;;;;;;31.46;42.59;100789.64;1783006;79;21529;-77
2021/07/31 09:40:30;;;;;;;22.27;4.33;;;;;;;31.46;42.63;100788.30;1783719;80;21147;-76
2021/07/31 09:43:17;;;;;;;6.85;4.00;;;;;;;31.54;43.56;100781.25;1785046;80;20979;-81
2021/07/31 09:45:47;;;;;;;6.87;4.42;;;;;;;31.69;42.46;100782.91;1789309;79;21005;-79
2021/07/31 09:48:16;;;;;;;7.03;4.25;;;;;;;31.72;41.81;100786.45;1779464;80;21242;-77
2021/07/31 09:50:47;;;;;;;7.60;4.42;;;;;;;31.72;42.30;100787.01;1799640;79;21031;-81
2021/07/31 09:53:16;;;;;;;5.05;3.85;;;;;;;31.77;42.39;100784.41;1789978;79;21122;-76
2021/07/31 09:55:48;;;;;;;4.37;3.98;;;;;;;31.86;42.11;100793.20;1789799;79;20872;-75
2021/07/31 09:58:18;;;;;;;4.50;4.10;;;;;;;31.94;42.40;100788.79;1791189;79;21055;-76
2021/07/31 10:00:46;;;;;;;6.25;3.87;;;;;;;32.01;42.08;100785.97;1810601;78;21529;-85
2021/07/31 10:03:13;;;;;;;5.67;4.10;;;;;;;32.32;41.33;100782.05;1769132;80;21008;-83
2021/07/31 10:05:42;;;;;;;5.53;4.12;;;;;;;33.08;39.78;100785.50;1819533;78;21516;-74
2021/07/31 10:08:11;;;;;;;6.17;4.07;;;;;;;33.89;39.05;100782.60;1785564;79;21503;-76
2021/07/31 10:10:38;;;;;;;9.08;3.98;;;;;;;34.61;36.11;100779.65;1792508;78;20979;-75
2021/07/31 10:13:05;;;;;;;4.60;4.08;;;;;;;35.27;35.94;100780.97;1785235;79;20888;-73
2021/07/31 10:15:32;;;;;;;4.78;4.10;;;;;;;36.19;34.03;100781.69;1817518;78;21041;-76
2021/07/31 10:17:59;;;;;;;4.92;3.90;;;;;;;36.78;32.14;100778.78;1782563;80;21534;-81
2021/07/31 10:20:28;;;;;;;6.83;4.15;;;;;;;36.76;32.54;100779.58;1817417;78;20919;-77
2021/07/31 10:22:56;;;;;;;5.17;3.37;;;;;;;36.95;32.10;100777.16;1781747;80;21038;-82
2021/07/31 10:25:25;;;;;;;5.90;4.15;;;;;;;37.53;31.39;100778.41;1797187;79;20943;-76
2021/07/31 10:27:53;;;;;;;6.25;3.90;;;;;;;38.12;31.12;100772.47;1813700;79;20872;-81
2021/07/31 10:30:29;;;;;;;6.03;3.70;;;;;;;38.62;29.14;100782.70;1725229;79;21994;-74
2021/07/31 10:32:56;;;;;;;3.60;3.30;;;;;;;38.29;29.80;100778.87;1793713;79;20991;-77
2021/07/31 10:35:35;;;;;;;6.58;4.03;;;;;;;38.12;30.14;100777.07;1814112;78;20938;-81
2021/07/31 10:38:06;;;;;;;8.10;4.20;;;;;;;37.61;29.61;100773.78;1768543;81;20952;-84
2021/07/31 10:40:42;;;;;;;6.12;3.87;;;;;;;36.86;31.06;100770.64;1749578;82;21505;-79
2021/07/31 10:43:11;;;;;;;4.53;3.27;;;;;;;36.44;31.85;100773.62;1785092;78;21816;-76
2021/07/31 10:45:39;;;;;;;5.65;3.77;;;;;;;36.11;32.38;100770.04;1794070;79;21481;-77
2021/07/31 10:48:25;;;;;;;6.50;4.08;;;;;;;35.75;33.47;100769.08;1794724;79;21425;-76
2021/07/31 10:50:55;;;;;;;4.42;3.95;;;;;;;35.24;34.63;100762.60;1777070;79;20896;-79
2021/07/31 10:53:25;;;;;;;11.48;4.05;;;;;;;34.95;34.56;100764.28;1772103;80;20939;-81
2021/07/31 10:55:58;;;;;;;4.92;3.65;;;;;;;34.83;35.14;100766.89;1748103;82;22017;-78
2021/07/31 10:58:27;;;;;;;6.55;4.30;;;;;;;34.76;35.22;100763.06;1751579;81;20998;-77
2021/07/31 11:01:21;;;;;;;6.50;4.30;;;;;;;34.59;35.96;100761.55;1770626;80;20939;-76
2021/07/31 11:03:48;;;;;;;4.90;4.00;;;;;;;34.50;35.87;100757.14;1792349;80;21005;-78
2021/07/31 11:06:14;;;;;;;4.97;3.98;;;;;;;34.37;36.85;100761.07;1792334;80;20958;-77
2021/07/31 11:08:52;;;;;;;6.72;4.00;;;;;;;34.25;36.73;100752.34;1792268;80;21123;-79
2021/07/31 11:11:25;;;;;;;10.38;4.97;;;;;;;34.16;37.09;100758.44;1791237;80;21472;-80
2021/07/31 11:13:54;;;;;;;4.15;3.75;;;;;;;34.13;37.01;100762.98;1791774;79;21046;-79
2021/07/31 11:16:26;;;;;;;5.92;3.72;;;;;;;34.05;36.94;100758.82;1772029;80;21031;-80
2021/07/31 11:19:01;;;;;;;10.05;4.35;;;;;;;33.98;37.46;100762.27;1795616;79;21089;-81
2021/07/31 11:21:38;;;;;;;9.98;3.90;;;;;;;34.02;36.95;100759.33;1799309;79;21103;-78
2021/07/31 11:24:10;;;;;;;8.38;4.30;;;;;;;34.04;37.45;100758.03;1798603;79;21596;-77
2021/07/31 11:26:50;;;;;;;9.90;3.60;;;;;;;34.15;37.31;100760.84;1794247;79;21534;-84
2021/07/31 11:29:24;;;;;;;5.43;3.97;;;;;;;34.19;36.42;100756.05;1765665;81;21561;-79